Terminal Aerodrome Forecast
Issued by NWS

Home | Current Version | Previous Version | Graphics & Text | Print | Product List | Glossary On
Versions: 1 2 3 4 5 6 7 8 9 10 11 12 13 14 15 16 17 18 19
000
FTUS42 KMHX 210500
TAFPGV
TAF
KPGV 210520Z 2106/2206 01004KT P6SM SCT009 BKN020 OVC030
      TEMPO 2106/2110 5SM -RA BKN009
     FM211000 33006KT 5SM RA BR OVC010
     FM211400 33005KT P6SM SCT010 BKN100
     FM211700 33007KT P6SM SCT060 SCT100
      AMD LTD TO CLD VIS AND WIND=

USA.gov is the U.S. government's official web portal to all federal, state and local government web resources and services.